Strona główna
METAR-TAF:

METAR-TAF

Lotnisko :

Port lotniczy Bornholm

Rønne, Dania

Szerokość geograficzna: 55-04N, Długość geograficzna: 014-45E, wysokość: 16 m

Aktualna obserwacja pogody

Raport powstał 36 minut temu, godzina 11:50 UTC
Wiatr 6 kt od południowy wschód
Temperatura 5°C
Wilgotność 93%
Ciśnienie 1018 hPa
Widzialność: 6000 m

METAR: EKRN 181150Z AUTO 14006KT 6000 NCD 05/04 Q1018

czas: 13:26 (12:26 UTC)

Prognoza

Raport powstał 1 godzina i 4 minut temu, godzina 11:22 UTC
Prognoza ważna od 18 godzina 12 UTC do 18 godzina 21 UTC
Wiatr 8 kt od południowo-południowy wschód
Widzialność: 6000 m

TAF: EKRN 181122Z 1812/1821 15008KT 6000 NSC

Obserwacja i prognoza pogody dla ponad 4000 lotnisk (raport METAR i TAF).

Dostępne stacje oznaczono żółtymi i czerwonymi punktami na mapie.

Najedź kursorem aby zobaczyć nazwę stacji.

Kliknij aby zobaczyć obserwacje i prognozy pogody.

Aby zmienić mapę: kliknij na zielony przycisk z czarnym krzyżykiem, aby powiększyć; na zielony przycisk z myślnikiem, aby pomniejszyć; na zielone strzałki, aby przejść do map sąsiednich.


METAR-TAF: